Time;durP1;ratioP1;P1;durP2;ratioP2;P2;SDS_P1;SDS_P2;PMS_P1;PMS_P2;Temp;Humidity;BMP_temperature;BMP_pressure;BME280_temperature;BME280_humidity;BME280_pressure;Samples;Min_cycle;Max_cycle;Signal;HPM_P1;HPM_P2
2023/09/23 00:00:37;;;;;;;17.13;8.48;;;18.60;99.90;;;;;;5031140;28;20142;-72
2023/09/23 00:03:04;;;;;;;12.45;7.72;;;18.70;99.90;;;;;;5030122;28;20028;-76
2023/09/23 00:05:33;;;;;;;13.32;7.47;;;18.80;99.90;;;;;;5013076;28;20555;-72
2023/09/23 00:07:58;;;;;;;13.98;8.70;;;18.90;99.90;;;;;;5029375;28;20471;-76
2023/09/23 00:10:24;;;;;;;12.80;7.97;;;19.00;99.90;;;;;;5030052;28;20112;-76
2023/09/23 00:12:50;;;;;;;12.10;7.65;;;19.00;99.90;;;;;;5029337;28;20498;-72
2023/09/23 00:15:16;;;;;;;12.60;8.02;;;19.00;99.90;;;;;;5031650;28;20474;-76
2023/09/23 00:17:45;;;;;;;10.98;8.23;;;19.00;99.90;;;;;;5029110;28;20025;-76
2023/09/23 00:20:16;;;;;;;16.48;8.95;;;19.00;99.90;;;;;;5029840;28;20022;-76
2023/09/23 00:22:46;;;;;;;15.23;8.15;;;19.00;99.90;;;;;;5030961;28;20022;-72
2023/09/23 00:25:13;;;;;;;12.73;9.30;;;19.00;99.90;;;;;;5029303;28;20040;-76
2023/09/23 00:27:41;;;;;;;13.40;8.55;;;19.00;99.90;;;;;;5029908;28;20440;-72
2023/09/23 00:30:07;;;;;;;11.55;7.38;;;18.90;99.90;;;;;;5032892;28;20095;-77
2023/09/23 00:32:34;;;;;;;12.95;8.13;;;18.80;99.90;;;;;;5032444;28;20037;-77
2023/09/23 00:35:00;;;;;;;16.02;8.50;;;18.80;99.90;;;;;;5032534;28;20028;-76
2023/09/23 00:37:27;;;;;;;11.90;7.65;;;18.70;99.90;;;;;;5032834;28;20041;-72
2023/09/23 00:39:53;;;;;;;13.55;8.65;;;18.70;99.90;;;;;;5032429;28;20014;-76
2023/09/23 00:42:19;;;;;;;17.58;8.90;;;18.60;99.90;;;;;;5034386;28;20012;-76
2023/09/23 00:44:45;;;;;;;11.07;8.13;;;18.50;99.90;;;;;;5032281;28;20436;-76
2023/09/23 00:47:14;;;;;;;17.23;8.88;;;18.40;99.90;;;;;;5032443;28;20116;-72
2023/09/23 00:49:45;;;;;;;19.15;8.70;;;18.20;99.90;;;;;;5031238;28;20029;-73
2023/09/23 00:52:15;;;;;;;12.48;9.73;;;18.10;99.90;;;;;;5032498;28;20041;-72
2023/09/23 00:54:46;;;;;;;19.38;11.32;;;18.10;99.90;;;;;;5032364;28;20112;-76
2023/09/23 00:57:14;;;;;;;21.50;11.80;;;18.00;99.90;;;;;;5071160;27;20008;-72
2023/09/23 00:59:40;;;;;;;19.30;12.57;;;18.00;99.90;;;;;;5109979;27;20021;-76
2023/09/23 01:02:06;;;;;;;28.83;15.45;;;17.90;99.90;;;;;;5072445;27;20053;-72
2023/09/23 01:04:34;;;;;;;31.27;16.08;;;17.90;99.90;;;;;;5047234;27;20023;-71
2023/09/23 01:07:02;;;;;;;26.55;14.38;;;17.80;99.90;;;;;;5079340;27;20456;-72
2023/09/23 01:09:29;;;;;;;25.85;16.15;;;17.80;99.90;;;;;;5032030;28;20056;-72
2023/09/23 01:11:56;;;;;;;27.30;18.38;;;17.70;99.90;;;;;;5032137;28;20033;-77
2023/09/23 01:14:22;;;;;;;35.53;21.67;;;17.70;99.90;;;;;;5079911;27;20053;-72
2023/09/23 01:16:51;;;;;;;30.60;21.17;;;17.70;99.90;;;;;;5032172;28;20442;-71
2023/09/23 01:19:18;;;;;;;32.20;20.65;;;17.70;99.90;;;;;;5031467;28;20026;-77
2023/09/23 01:21:48;;;;;;;39.63;23.58;;;17.60;99.90;;;;;;5032210;28;20028;-77
2023/09/23 01:24:18;;;;;;;39.55;23.27;;;17.60;99.90;;;;;;5031826;28;20021;-72
2023/09/23 01:26:51;;;;;;;35.50;22.77;;;17.50;99.90;;;;;;5032742;28;20086;-77
2023/09/23 01:29:18;;;;;;;33.97;23.38;;;17.50;99.90;;;;;;5030160;28;20028;-77
2023/09/23 01:31:53;;;;;;;36.25;25.00;;;17.40;99.90;;;;;;5044397;27;20664;-77
2023/09/23 01:34:19;;;;;;;35.05;23.27;;;17.30;99.90;;;;;;5032141;28;20017;-76
2023/09/23 01:36:45;;;;;;;41.95;23.35;;;17.30;99.90;;;;;;5031567;28;20029;-76
2023/09/23 01:39:11;;;;;;;32.13;22.27;;;17.20;99.90;;;;;;5031309;28;20507;-72
2023/09/23 01:41:37;;;;;;;29.25;18.90;;;17.20;99.90;;;;;;5032128;28;20058;-72
2023/09/23 01:44:04;;;;;;;23.65;17.73;;;17.10;99.90;;;;;;5032552;28;20139;-77
2023/09/23 01:46:30;;;;;;;25.85;16.70;;;17.10;99.90;;;;;;5030119;28;20021;-77
2023/09/23 01:48:57;;;;;;;20.05;14.20;;;17.10;99.90;;;;;;5018571;28;20554;-77
2023/09/23 01:51:23;;;;;;;18.90;14.65;;;17.00;99.90;;;;;;5039822;28;20033;-77
2023/09/23 01:53:49;;;;;;;21.02;15.48;;;17.00;99.90;;;;;;5028597;28;20533;-72
2023/09/23 01:56:14;;;;;;;19.67;13.85;;;17.00;99.90;;;;;;5029691;28;20021;-76
2023/09/23 01:58:41;;;;;;;17.98;12.93;;;16.90;99.90;;;;;;5028564;28;20364;-72
2023/09/23 02:01:07;;;;;;;20.83;14.15;;;16.80;99.90;;;;;;5029764;28;20467;-72
2023/09/23 02:03:33;;;;;;;21.67;14.55;;;16.90;99.90;;;;;;5028566;28;20022;-77
2023/09/23 02:06:00;;;;;;;19.63;13.05;;;16.80;99.90;;;;;;5030266;28;20398;-72
2023/09/23 02:08:25;;;;;;;20.27;14.43;;;16.80;99.90;;;;;;5030062;28;20125;-77
2023/09/23 02:10:51;;;;;;;20.67;14.20;;;16.70;99.90;;;;;;5031456;28;20477;-77
2023/09/23 02:13:17;;;;;;;18.73;13.77;;;16.70;99.90;;;;;;5030493;28;20030;-77
2023/09/23 02:15:45;;;;;;;21.17;14.13;;;16.60;99.90;;;;;;5031535;28;20463;-71
2023/09/23 02:18:11;;;;;;;18.70;13.40;;;16.70;99.90;;;;;;5031859;28;20025;-72
2023/09/23 02:20:38;;;;;;;23.23;14.85;;;16.60;99.90;;;;;;5030508;28;20588;-77
2023/09/23 02:23:05;;;;;;;57.83;18.20;;;16.60;99.90;;;;;;5046780;28;20493;-77
2023/09/23 02:25:31;;;;;;;32.75;18.42;;;16.40;99.90;;;;;;5031510;28;20022;-77
2023/09/23 02:27:57;;;;;;;28.48;18.48;;;16.40;99.90;;;;;;5031722;28;20025;-72
2023/09/23 02:30:22;;;;;;;35.42;18.73;;;16.40;99.90;;;;;;5030849;28;20061;-76
2023/09/23 02:32:48;;;;;;;33.25;19.55;;;16.30;99.90;;;;;;5029969;28;20037;-77
2023/09/23 02:35:16;;;;;;;25.10;16.40;;;16.20;99.90;;;;;;5031185;28;20093;-77
2023/09/23 02:37:47;;;;;;;29.98;17.88;;;16.20;99.90;;;;;;5031061;28;20046;-77
2023/09/23 02:40:16;;;;;;;21.42;15.60;;;16.10;99.90;;;;;;5031228;28;20013;-72
2023/09/23 02:42:44;;;;;;;26.08;16.35;;;16.10;99.90;;;;;;5031282;28;20114;-72
2023/09/23 02:45:12;;;;;;;23.50;16.05;;;16.00;99.90;;;;;;5031080;28;20064;-72
2023/09/23 02:47:38;;;;;;;24.65;15.40;;;16.00;99.90;;;;;;5034434;28;20032;-72
2023/09/23 02:50:09;;;;;;;29.33;16.30;;;15.90;99.90;;;;;;5034795;28;20025;-71
2023/09/23 02:52:39;;;;;;;24.48;14.15;;;15.90;99.90;;;;;;5034383;28;20033;-71
2023/09/23 02:55:15;;;;;;;23.88;16.08;;;15.70;99.90;;;;;;5030059;28;20097;-76
2023/09/23 02:57:48;;;;;;;21.75;14.88;;;15.70;99.90;;;;;;5031382;28;20029;-77
2023/09/23 03:00:20;;;;;;;17.85;13.18;;;15.60;99.90;;;;;;5030966;28;20483;-72
2023/09/23 03:03:01;;;;;;;19.48;14.35;;;15.50;99.90;;;;;;5029398;28;20035;-71
2023/09/23 03:05:31;;;;;;;25.33;14.23;;;15.40;99.90;;;;;;5018618;28;20030;-77
2023/09/23 03:07:58;;;;;;;23.52;14.93;;;15.30;99.90;;;;;;5042029;28;20033;-77
2023/09/23 03:10:40;;;;;;;22.95;13.88;;;15.20;99.90;;;;;;5030942;28;20025;-77
2023/09/23 03:13:07;;;;;;;19.88;13.48;;;15.10;99.90;;;;;;5030651;28;20033;-77
2023/09/23 03:15:46;;;;;;;19.88;14.98;;;15.10;99.90;;;;;;5030470;28;20017;-77
2023/09/23 03:18:17;;;;;;;22.42;15.18;;;15.10;99.90;;;;;;5031169;28;20105;-72
2023/09/23 03:20:43;;;;;;;20.85;14.23;;;15.10;99.90;;;;;;5030461;28;20028;-72
2023/09/23 03:23:09;;;;;;;18.83;13.85;;;15.00;99.90;;;;;;5030601;28;20053;-76
2023/09/23 03:25:48;;;;;;;23.17;14.63;;;15.00;99.90;;;;;;5029235;28;20055;-77
2023/09/23 03:28:15;;;;;;;20.13;14.52;;;15.00;99.90;;;;;;5030972;28;20025;-77
2023/09/23 03:30:44;;;;;;;21.33;13.68;;;15.00;99.90;;;;;;5029805;28;20076;-71
2023/09/23 03:33:11;;;;;;;19.60;13.40;;;14.90;99.90;;;;;;5030145;28;20530;-77
2023/09/23 03:35:38;;;;;;;21.05;14.68;;;14.80;99.90;;;;;;5030346;28;20049;-78
2023/09/23 03:38:04;;;;;;;18.70;14.13;;;14.80;99.90;;;;;;5029940;28;20038;-71
2023/09/23 03:40:31;;;;;;;23.38;15.27;;;14.70;99.90;;;;;;5030312;28;20021;-77
2023/09/23 03:42:58;;;;;;;20.65;14.18;;;14.60;99.90;;;;;;5031264;28;20068;-72
2023/09/23 03:45:24;;;;;;;22.75;14.48;;;14.50;99.90;;;;;;5030280;28;20021;-71
2023/09/23 03:47:49;;;;;;;21.27;14.07;;;14.50;99.90;;;;;;5029477;28;20040;-77
2023/09/23 03:50:15;;;;;;;20.38;12.60;;;14.60;99.90;;;;;;5028911;28;20022;-77
2023/09/23 03:52:42;;;;;;;18.80;12.77;;;14.60;99.90;;;;;;5031470;28;20067;-72
2023/09/23 03:55:13;;;;;;;20.38;12.43;;;14.70;99.90;;;;;;5030293;28;20131;-71
2023/09/23 03:57:39;;;;;;;16.10;11.73;;;14.70;99.90;;;;;;5030247;28;20021;-77
2023/09/23 04:00:17;;;;;;;15.77;12.13;;;14.70;99.90;;;;;;5048218;28;20017;-71
2023/09/23 04:02:50;;;;;;;20.60;12.57;;;14.70;99.90;;;;;;5031060;28;20013;-76
2023/09/23 04:05:16;;;;;;;16.75;11.65;;;14.70;99.90;;;;;;5019776;28;20022;-76
2023/09/23 04:07:49;;;;;;;20.60;13.10;;;14.60;99.90;;;;;;5029552;28;20117;-72
2023/09/23 04:10:15;;;;;;;16.77;11.73;;;14.60;99.90;;;;;;5028640;28;20024;-76
2023/09/23 04:12:42;;;;;;;17.88;13.05;;;14.60;99.90;;;;;;5035410;28;20037;-71
2023/09/23 04:15:08;;;;;;;19.27;11.82;;;14.60;99.90;;;;;;5036689;28;20070;-76
2023/09/23 04:17:34;;;;;;;15.23;11.30;;;14.60;99.90;;;;;;5029755;28;20021;-76
2023/09/23 04:20:09;;;;;;;15.13;10.32;;;14.60;99.90;;;;;;5028510;28;20045;-71
2023/09/23 04:22:36;;;;;;;14.85;10.32;;;14.50;99.90;;;;;;5016364;28;20018;-71
2023/09/23 04:25:05;;;;;;;20.48;11.70;;;14.50;99.90;;;;;;5029750;28;20025;-71
2023/09/23 04:27:32;;;;;;;16.95;11.07;;;14.40;99.90;;;;;;5029844;28;20029;-71
2023/09/23 04:30:00;;;;;;;14.20;8.90;;;14.40;99.90;;;;;;5029542;28;20025;-77
2023/09/23 04:32:26;;;;;;;13.38;8.45;;;14.40;99.90;;;;;;5028533;28;20057;-71
2023/09/23 04:34:52;;;;;;;11.90;9.05;;;14.40;99.90;;;;;;5028515;28;20025;-76
2023/09/23 04:37:18;;;;;;;16.13;9.20;;;14.50;99.90;;;;;;5028120;28;20021;-76
2023/09/23 04:39:43;;;;;;;10.45;7.55;;;14.50;99.90;;;;;;5028182;28;20045;-72
2023/09/23 04:42:11;;;;;;;10.55;7.68;;;14.50;99.90;;;;;;5029769;28;20070;-76
2023/09/23 04:44:37;;;;;;;12.15;7.50;;;14.50;99.90;;;;;;5029660;28;20039;-71
2023/09/23 04:47:02;;;;;;;10.32;6.78;;;14.50;99.90;;;;;;5047591;28;20025;-76
2023/09/23 04:49:28;;;;;;;10.57;6.85;;;14.50;99.90;;;;;;5032724;28;20463;-76
2023/09/23 04:51:54;;;;;;;10.82;6.45;;;14.60;99.90;;;;;;5029122;28;20037;-76
2023/09/23 04:54:22;;;;;;;9.90;6.93;;;14.60;99.90;;;;;;5029156;28;20033;-76
2023/09/23 04:56:48;;;;;;;9.10;5.85;;;14.70;99.90;;;;;;5027941;28;20021;-72
2023/09/23 04:59:13;;;;;;;9.13;6.05;;;14.80;99.90;;;;;;5029083;28;20391;-71
2023/09/23 05:01:40;;;;;;;8.07;6.18;;;14.80;99.90;;;;;;5029095;28;20021;-76
2023/09/23 05:04:07;;;;;;;9.07;7.20;;;14.90;99.90;;;;;;5027472;28;20124;-76
2023/09/23 05:06:34;;;;;;;9.95;6.57;;;15.00;99.90;;;;;;5027949;28;20021;-76
2023/09/23 05:09:00;;;;;;;9.93;7.38;;;15.00;99.90;;;;;;5045139;28;20072;-76
2023/09/23 05:11:25;;;;;;;10.63;7.47;;;15.00;99.90;;;;;;5029056;28;20507;-77
2023/09/23 05:13:51;;;;;;;10.13;7.47;;;15.00;99.90;;;;;;5029962;28;20014;-76
2023/09/23 05:16:17;;;;;;;13.60;8.63;;;14.90;99.90;;;;;;5031245;28;20379;-77
2023/09/23 05:18:42;;;;;;;13.70;8.73;;;14.90;99.90;;;;;;5047879;28;20026;-73
2023/09/23 05:21:09;;;;;;;12.40;7.78;;;14.80;99.90;;;;;;5042757;28;20017;-73
2023/09/23 05:23:35;;;;;;;12.02;8.02;;;14.80;99.90;;;;;;5030749;28;20109;-78
2023/09/23 05:26:04;;;;;;;12.68;8.07;;;14.80;99.90;;;;;;5040625;28;20021;-78
2023/09/23 05:28:30;;;;;;;13.10;8.50;;;14.80;99.90;;;;;;5047546;28;20073;-78
2023/09/23 05:30:58;;;;;;;12.02;7.68;;;14.80;99.90;;;;;;5042041;28;20025;-78
2023/09/23 05:33:24;;;;;;;13.05;8.98;;;14.80;99.90;;;;;;5046991;28;20089;-78
2023/09/23 05:35:51;;;;;;;12.32;7.72;;;14.80;99.90;;;;;;5042249;28;20037;-78
2023/09/23 05:38:19;;;;;;;12.38;7.47;;;14.70;99.90;;;;;;5047125;28;20384;-72
2023/09/23 05:40:46;;;;;;;10.60;7.25;;;14.70;99.90;;;;;;5036052;28;20594;-78
2023/09/23 05:43:12;;;;;;;12.75;9.10;;;14.70;99.90;;;;;;5035401;28;20549;-79
2023/09/23 05:45:38;;;;;;;16.10;8.75;;;14.50;99.90;;;;;;5024167;28;20113;-78
2023/09/23 05:48:05;;;;;;;12.73;9.02;;;14.50;99.90;;;;;;5024907;28;20109;-78
2023/09/23 05:50:31;;;;;;;12.52;8.52;;;14.50;99.90;;;;;;5031572;28;20025;-76
2023/09/23 05:52:57;;;;;;;17.15;9.35;;;14.50;99.90;;;;;;5027635;28;20108;-76
2023/09/23 05:55:23;;;;;;;18.13;10.70;;;14.50;99.90;;;;;;5032127;28;20172;-76
2023/09/23 05:57:49;;;;;;;19.52;11.27;;;14.40;99.90;;;;;;5025630;28;20045;-71
2023/09/23 06:00:15;;;;;;;19.88;12.18;;;14.40;99.90;;;;;;5029723;28;20083;-71
2023/09/23 06:02:41;;;;;;;24.08;13.35;;;14.40;99.90;;;;;;5031487;28;20025;-74
2023/09/23 06:05:07;;;;;;;18.20;10.80;;;14.40;99.90;;;;;;5032150;27;20042;-72
2023/09/23 06:07:33;;;;;;;14.75;9.65;;;14.40;99.90;;;;;;5039957;28;20045;-78
2023/09/23 06:09:59;;;;;;;15.35;9.27;;;14.40;99.90;;;;;;5044612;28;20071;-77
2023/09/23 06:12:32;;;;;;;12.02;6.97;;;14.30;99.90;;;;;;5039462;28;20113;-71
2023/09/23 06:14:58;;;;;;;11.10;7.35;;;14.30;99.90;;;;;;5014104;28;20025;-71
2023/09/23 06:17:25;;;;;;;10.88;6.22;;;14.30;99.90;;;;;;5015716;28;20028;-76
2023/09/23 06:19:51;;;;;;;13.10;7.10;;;14.30;99.90;;;;;;5022169;28;20025;-71
2023/09/23 06:22:17;;;;;;;10.00;7.18;;;14.30;99.90;;;;;;5029313;28;20013;-71
2023/09/23 06:24:43;;;;;;;8.68;6.57;;;14.40;99.90;;;;;;5029997;28;20069;-71
2023/09/23 06:27:09;;;;;;;7.95;5.72;;;14.30;99.90;;;;;;5031280;28;20022;-71
2023/09/23 06:29:34;;;;;;;8.10;5.63;;;14.30;99.90;;;;;;5030856;28;20419;-76
2023/09/23 06:32:00;;;;;;;7.82;5.57;;;14.30;99.90;;;;;;5034171;28;20391;-72
2023/09/23 06:34:25;;;;;;;6.78;5.32;;;14.30;99.90;;;;;;5030513;28;20503;-71
2023/09/23 06:36:51;;;;;;;7.55;5.15;;;14.30;99.90;;;;;;5029385;28;20037;-71
2023/09/23 06:39:17;;;;;;;5.80;4.88;;;14.40;99.90;;;;;;5026969;28;20067;-78
2023/09/23 06:41:42;;;;;;;7.60;4.95;;;14.40;99.90;;;;;;5026799;28;20018;-71
2023/09/23 06:44:08;;;;;;;7.95;5.53;;;14.50;99.90;;;;;;5026283;28;20088;-71
2023/09/23 06:46:34;;;;;;;6.60;4.68;;;14.50;99.90;;;;;;5029612;28;20017;-71
2023/09/23 06:48:59;;;;;;;4.55;3.45;;;14.50;99.90;;;;;;5027210;28;20025;-71
2023/09/23 06:51:27;;;;;;;4.28;3.45;;;14.50;99.90;;;;;;5029603;28;20029;-77
2023/09/23 06:53:52;;;;;;;5.32;3.13;;;14.60;99.90;;;;;;5029955;28;20391;-72
2023/09/23 06:56:18;;;;;;;4.90;3.17;;;14.60;99.90;;;;;;5030517;28;20028;-77
2023/09/23 06:58:44;;;;;;;4.03;3.15;;;14.60;99.90;;;;;;5030282;28;20026;-77
2023/09/23 07:01:09;;;;;;;3.88;2.55;;;14.60;99.90;;;;;;5030884;28;20036;-71
2023/09/23 07:03:35;;;;;;;4.28;2.33;;;14.70;99.90;;;;;;5029656;28;20022;-71
2023/09/23 07:06:00;;;;;;;2.75;2.28;;;14.60;99.90;;;;;;5029050;28;20433;-78
2023/09/23 07:08:26;;;;;;;2.40;2.10;;;14.60;99.90;;;;;;5030439;28;20071;-78
2023/09/23 07:10:52;;;;;;;2.55;2.15;;;14.60;99.90;;;;;;5029743;28;20017;-72
2023/09/23 07:13:17;;;;;;;2.75;2.03;;;14.50;99.90;;;;;;5030408;28;20038;-78
2023/09/23 07:15:43;;;;;;;2.22;1.80;;;14.60;99.90;;;;;;5030135;28;20024;-78
2023/09/23 07:18:09;;;;;;;2.50;2.30;;;14.50;99.90;;;;;;5029040;28;20364;-71
2023/09/23 07:20:35;;;;;;;1.60;1.50;;;14.60;99.90;;;;;;5029011;28;20066;-78
2023/09/23 07:23:01;;;;;;;1.35;1.25;;;14.60;99.90;;;;;;5029543;28;20028;-77
2023/09/23 07:25:27;;;;;;;2.97;1.25;;;14.70;99.90;;;;;;5024050;28;20022;-72
2023/09/23 07:27:54;;;;;;;1.30;1.20;;;14.70;99.90;;;;;;5027467;28;20471;-70
2023/09/23 07:30:19;;;;;;;1.90;1.13;;;14.70;99.90;;;;;;5029944;28;20040;-71
2023/09/23 07:32:45;;;;;;;1.60;1.50;;;14.70;99.90;;;;;;5028875;28;20399;-78
2023/09/23 07:35:11;;;;;;;1.63;1.52;;;14.70;99.90;;;;;;5028845;28;20498;-78
2023/09/23 07:37:36;;;;;;;1.52;1.42;;;14.80;99.90;;;;;;5023709;28;20115;-78
2023/09/23 07:40:02;;;;;;;1.70;1.60;;;14.80;99.90;;;;;;5029108;28;20017;-71
2023/09/23 07:42:29;;;;;;;2.10;1.88;;;14.80;99.90;;;;;;5027433;28;20048;-78
2023/09/23 07:44:56;;;;;;;2.05;1.80;;;14.80;99.90;;;;;;5024735;28;20087;-79
2023/09/23 07:47:21;;;;;;;2.42;2.22;;;14.80;99.90;;;;;;5027671;28;20029;-78
2023/09/23 07:49:47;;;;;;;2.55;2.17;;;14.70;99.90;;;;;;5033131;28;20074;-71
2023/09/23 07:52:13;;;;;;;3.65;3.13;;;14.70;99.90;;;;;;5031854;28;20041;-71
2023/09/23 07:54:39;;;;;;;3.70;3.00;;;14.70;99.90;;;;;;5029431;28;20429;-71
2023/09/23 07:57:04;;;;;;;3.97;3.20;;;14.70;99.90;;;;;;5029288;28;20018;-71
2023/09/23 07:59:30;;;;;;;5.28;3.50;;;14.60;99.90;;;;;;5030781;28;20112;-71
2023/09/23 08:01:56;;;;;;;5.45;3.60;;;14.70;99.90;;;;;;5030229;28;20021;-71
2023/09/23 08:04:21;;;;;;;5.63;4.10;;;14.70;99.90;;;;;;5033516;28;20029;-71
2023/09/23 08:06:47;;;;;;;4.30;3.50;;;14.70;99.90;;;;;;5028591;28;20100;-79
2023/09/23 08:09:13;;;;;;;5.55;4.50;;;14.70;99.90;;;;;;5030658;28;20010;-72
2023/09/23 08:11:38;;;;;;;5.60;4.97;;;14.60;99.90;;;;;;5032378;28;20059;-72
2023/09/23 08:14:04;;;;;;;5.95;4.93;;;14.60;99.90;;;;;;5034684;28;20072;-72
2023/09/23 08:16:30;;;;;;;7.15;5.32;;;14.60;99.90;;;;;;5033334;28;20100;-79
2023/09/23 08:18:55;;;;;;;8.35;5.28;;;14.50;99.90;;;;;;5034657;28;20074;-72
2023/09/23 08:21:21;;;;;;;5.97;5.38;;;14.60;99.90;;;;;;5031225;28;20421;-79
2023/09/23 08:23:46;;;;;;;7.50;5.65;;;14.60;99.90;;;;;;5030476;28;20017;-72
2023/09/23 08:26:12;;;;;;;6.20;4.95;;;14.70;99.90;;;;;;5031813;28;20024;-79
2023/09/23 08:28:39;;;;;;;6.25;5.65;;;14.70;99.90;;;;;;5030679;28;20017;-72
2023/09/23 08:31:05;;;;;;;6.82;5.05;;;14.80;99.90;;;;;;5028491;28;20053;-79
2023/09/23 08:33:30;;;;;;;6.07;4.93;;;14.80;99.90;;;;;;5030478;28;20075;-71
2023/09/23 08:35:56;;;;;;;5.70;5.10;;;14.80;99.90;;;;;;5029627;28;20045;-77
2023/09/23 08:38:22;;;;;;;6.72;5.40;;;14.70;99.90;;;;;;5028335;28;20091;-72
2023/09/23 08:40:52;;;;;;;5.63;5.05;;;14.80;99.90;;;;;;5031510;28;20399;-77
2023/09/23 08:43:25;;;;;;;6.20;5.05;;;14.80;99.90;;;;;;5033998;28;20022;-77
2023/09/23 08:45:53;;;;;;;4.28;3.88;;;14.70;99.90;;;;;;5036734;28;20028;-77
2023/09/23 08:48:19;;;;;;;4.50;4.10;;;14.70;99.90;;;;;;5033409;28;20021;-72
2023/09/23 08:50:46;;;;;;;6.78;4.95;;;14.70;99.90;;;;;;5038643;28;20224;-77
2023/09/23 08:53:15;;;;;;;5.38;4.72;;;14.80;99.90;;;;;;5032499;28;20108;-77
2023/09/23 08:55:42;;;;;;;5.60;4.97;;;14.80;99.90;;;;;;5040037;28;20032;-77
2023/09/23 08:58:07;;;;;;;6.10;5.13;;;14.90;99.90;;;;;;5035697;28;20029;-72
2023/09/23 09:00:33;;;;;;;7.55;5.70;;;15.00;99.90;;;;;;5040422;28;20379;-72
2023/09/23 09:02:59;;;;;;;5.53;4.60;;;14.90;99.90;;;;;;5034474;28;20463;-77
2023/09/23 09:05:36;;;;;;;210.02;159.27;;;14.90;99.90;;;;;;5066613;27;20029;-72
2023/09/23 09:08:02;;;;;;;47.50;37.40;;;14.90;99.90;;;;;;5021290;28;20516;-72
2023/09/23 09:10:27;;;;;;;34.13;25.83;;;14.80;99.90;;;;;;5032377;28;20030;-72
2023/09/23 09:12:54;;;;;;;15.48;11.70;;;14.70;99.90;;;;;;5031219;28;20038;-72
2023/09/23 09:15:21;;;;;;;14.55;10.95;;;14.70;99.90;;;;;;5031512;28;20025;-72
2023/09/23 09:17:47;;;;;;;14.20;10.30;;;14.60;99.90;;;;;;5033155;28;20079;-72
2023/09/23 09:20:13;;;;;;;42.92;30.35;;;14.60;99.90;;;;;;5036191;28;20026;-78
2023/09/23 09:22:39;;;;;;;28.65;18.17;;;14.60;99.90;;;;;;5031115;28;20017;-73
2023/09/23 09:25:07;;;;;;;19.48;13.85;;;14.60;99.90;;;;;;5026836;28;20030;-72
2023/09/23 09:27:34;;;;;;;23.80;15.52;;;14.60;99.90;;;;;;5034920;28;20052;-72
2023/09/23 09:30:00;;;;;;;31.27;19.20;;;14.70;99.90;;;;;;5042517;28;20029;-72
2023/09/23 09:32:30;;;;;;;14.32;9.73;;;14.70;99.90;;;;;;5035973;28;20044;-78
2023/09/23 09:35:01;;;;;;;15.07;10.10;;;14.80;99.90;;;;;;5032406;28;20495;-72
2023/09/23 09:37:27;;;;;;;12.93;9.45;;;14.70;99.90;;;;;;5042239;28;20041;-78
2023/09/23 09:39:57;;;;;;;10.00;8.00;;;14.70;99.90;;;;;;5043793;28;20018;-78
2023/09/23 09:42:31;;;;;;;9.88;8.15;;;14.70;99.90;;;;;;5034252;28;20489;-72
2023/09/23 09:44:57;;;;;;;8.88;6.97;;;14.70;99.90;;;;;;5033871;28;20382;-78
2023/09/23 09:47:23;;;;;;;8.88;7.32;;;14.70;99.90;;;;;;5025916;28;20048;-78
2023/09/23 09:49:54;;;;;;;7.05;6.35;;;14.70;99.90;;;;;;5033963;28;20021;-78
2023/09/23 09:52:26;;;;;;;27.73;16.98;;;14.70;99.90;;;;;;5026444;28;20042;-78
2023/09/23 09:54:55;;;;;;;18.90;10.20;;;14.80;99.90;;;;;;5029253;28;20104;-78
2023/09/23 09:57:26;;;;;;;21.27;12.25;;;14.90;99.90;;;;;;5037413;28;20025;-79
2023/09/23 10:00:01;;;;;;;8.23;7.13;;;15.00;99.90;;;;;;5034813;28;20025;-79
2023/09/23 10:02:28;;;;;;;6.53;5.45;;;15.10;99.90;;;;;;5031270;28;20021;-80
2023/09/23 10:04:53;;;;;;;9.73;6.57;;;15.10;99.90;;;;;;5077808;27;20015;-79
2023/09/23 10:07:22;;;;;;;7.57;6.18;;;15.10;99.90;;;;;;5048043;27;20016;-79
2023/09/23 10:09:53;;;;;;;8.60;6.63;;;15.10;99.90;;;;;;5032313;28;20029;-80
2023/09/23 10:12:31;;;;;;;9.10;6.80;;;15.30;99.90;;;;;;5033275;28;20065;-80
2023/09/23 10:14:58;;;;;;;8.27;6.75;;;15.30;99.90;;;;;;5031865;28;20024;-79
2023/09/23 10:17:31;;;;;;;7.93;6.88;;;15.40;99.90;;;;;;5029256;28;20017;-72
2023/09/23 10:19:57;;;;;;;8.43;7.05;;;15.40;99.90;;;;;;5031190;28;20010;-72
2023/09/23 10:22:23;;;;;;;7.68;5.95;;;15.50;99.90;;;;;;5027152;28;20349;-72
2023/09/23 10:25:04;;;;;;;7.07;6.38;;;15.60;99.90;;;;;;5028813;28;20022;-72
2023/09/23 10:27:31;;;;;;;6.25;5.55;;;15.70;99.90;;;;;;5029143;28;20094;-72
2023/09/23 10:29:57;;;;;;;8.80;6.63;;;15.70;99.90;;;;;;5034958;28;20487;-72
2023/09/23 10:32:22;;;;;;;7.90;6.57;;;15.70;99.90;;;;;;5036274;28;20071;-72
2023/09/23 10:34:50;;;;;;;8.07;6.18;;;15.80;99.90;;;;;;5035987;28;20045;-72
2023/09/23 10:37:29;;;;;;;7.60;6.78;;;15.80;99.90;;;;;;5036255;28;20033;-72
2023/09/23 10:40:14;;;;;;;8.30;6.30;;;15.90;99.90;;;;;;5030718;28;20479;-72
2023/09/23 10:42:45;;;;;;;10.13;8.38;;;15.80;99.90;;;;;;5029545;28;20017;-72
2023/09/23 10:45:12;;;;;;;12.13;9.38;;;15.90;99.90;;;;;;5029513;28;20120;-72
2023/09/23 10:47:38;;;;;;;8.40;6.15;;;15.90;99.90;;;;;;5035157;28;20021;-72
2023/09/23 10:50:06;;;;;;;9.63;7.70;;;15.80;99.90;;;;;;5030678;28;20029;-71
2023/09/23 10:52:35;;;;;;;6.97;6.35;;;15.80;99.90;;;;;;5032317;28;20025;-72
2023/09/23 10:55:01;;;;;;;8.63;6.78;;;15.80;99.90;;;;;;5028914;28;20128;-72
2023/09/23 10:57:27;;;;;;;9.52;8.52;;;15.70;99.90;;;;;;5033514;28;20041;-72
2023/09/23 10:59:54;;;;;;;10.18;7.50;;;15.70;99.90;;;;;;5033658;28;20433;-71
2023/09/23 11:02:20;;;;;;;10.18;7.10;;;15.60;99.90;;;;;;5032513;28;20120;-72
2023/09/23 11:04:50;;;;;;;7.57;6.78;;;15.60;99.90;;;;;;5070647;27;20473;-80
2023/09/23 11:07:16;;;;;;;6.40;5.40;;;15.50;99.90;;;;;;5052332;27;20026;-72
2023/09/23 11:09:45;;;;;;;6.47;5.80;;;15.50;99.90;;;;;;5030423;28;20018;-71
2023/09/23 11:12:13;;;;;;;6.90;5.70;;;15.60;99.90;;;;;;5027820;28;20119;-72
2023/09/23 11:14:48;;;;;;;8.40;6.18;;;15.60;99.90;;;;;;5030620;28;20498;-79
2023/09/23 11:17:32;;;;;;;12.75;8.50;;;15.70;99.90;;;;;;5024746;28;20026;-71
2023/09/23 11:19:59;;;;;;;7.45;6.05;;;15.70;99.90;;;;;;5030151;28;20021;-72
2023/09/23 11:22:32;;;;;;;7.80;6.20;;;15.60;99.90;;;;;;5033180;28;20025;-72
2023/09/23 11:24:58;;;;;;;8.52;6.53;;;15.50;99.90;;;;;;5029256;28;20082;-72
2023/09/23 11:27:27;;;;;;;7.60;6.45;;;15.40;99.90;;;;;;5030356;28;20136;-72
2023/09/23 11:29:55;;;;;;;7.82;6.75;;;15.40;99.90;;;;;;5030346;28;20021;-79
2023/09/23 11:32:24;;;;;;;7.72;6.60;;;15.40;99.90;;;;;;5028024;28;20038;-79
2023/09/23 11:34:52;;;;;;;8.50;6.43;;;15.30;99.90;;;;;;5027789;28;20075;-72
2023/09/23 11:37:20;;;;;;;9.82;6.35;;;15.20;99.90;;;;;;5030945;28;20116;-79
2023/09/23 11:39:46;;;;;;;9.13;6.82;;;15.20;99.90;;;;;;5033800;28;20033;-72
2023/09/23 11:42:12;;;;;;;8.63;6.93;;;15.10;99.90;;;;;;5035781;28;20049;-72
2023/09/23 11:44:38;;;;;;;8.52;7.40;;;15.10;99.90;;;;;;5033703;28;20056;-71
2023/09/23 11:47:04;;;;;;;31.58;15.13;;;15.10;99.90;;;;;;5033885;28;20024;-79
2023/09/23 11:49:30;;;;;;;9.07;7.40;;;15.10;99.90;;;;;;5029971;28;20100;-80
2023/09/23 11:51:55;;;;;;;7.68;5.07;;;15.20;99.90;;;;;;5037932;28;20117;-72
2023/09/23 11:54:21;;;;;;;6.53;5.80;;;15.10;99.90;;;;;;5032299;28;20036;-80
2023/09/23 11:56:47;;;;;;;6.53;5.28;;;15.10;99.90;;;;;;5029182;28;20032;-80
2023/09/23 11:59:14;;;;;;;7.22;6.22;;;15.00;99.90;;;;;;5031640;28;20017;-80
2023/09/23 12:01:40;;;;;;;5.25;4.55;;;15.00;99.90;;;;;;5034798;28;20029;-79
2023/09/23 12:04:06;;;;;;;5.13;4.47;;;15.00;99.90;;;;;;5044532;27;20018;-72
2023/09/23 12:06:36;;;;;;;4.40;4.00;;;14.90;99.90;;;;;;5074136;27;20022;-72
2023/09/23 12:09:03;;;;;;;29.02;16.15;;;14.90;99.90;;;;;;5028158;28;20025;-72
2023/09/23 12:11:28;;;;;;;5.80;5.00;;;14.90;99.90;;;;;;5029602;28;20493;-72
2023/09/23 12:13:54;;;;;;;4.53;4.03;;;14.90;99.90;;;;;;5021866;28;20030;-72
2023/09/23 12:16:20;;;;;;;5.53;5.03;;;14.90;99.90;;;;;;5029645;28;20033;-72
2023/09/23 12:18:48;;;;;;;6.00;4.95;;;14.90;99.90;;;;;;5030025;28;20043;-72
2023/09/23 12:21:14;;;;;;;4.38;3.92;;;14.90;99.90;;;;;;5029423;28;20475;-80
2023/09/23 12:23:41;;;;;;;4.30;3.90;;;14.80;99.90;;;;;;5028010;28;20026;-80
2023/09/23 12:26:09;;;;;;;5.75;4.43;;;14.80;99.90;;;;;;5034425;28;20020;-80
2023/09/23 12:28:36;;;;;;;6.63;4.50;;;14.80;99.90;;;;;;5031732;28;20387;-80
2023/09/23 12:31:01;;;;;;;5.65;4.03;;;14.70;99.90;;;;;;5034088;28;20104;-80
2023/09/23 12:33:27;;;;;;;4.10;3.70;;;14.60;99.90;;;;;;5028730;28;20120;-80
2023/09/23 12:35:53;;;;;;;3.63;3.33;;;14.60;99.90;;;;;;5043182;28;20021;-80
2023/09/23 12:38:18;;;;;;;3.63;3.22;;;14.40;99.90;;;;;;5041899;28;20045;-80